• Join FlightAware (Why Join?)
  • Login
  • US Flag 
09:49PM EDT


 

Airport Tracker/Info


-or-


 

Live Flight TrackerFlight Track Log ✈ SWA1202 ✈ 26-Apr-2013 ✈ KLAX - KSJC

Flight Track Log - Related Links

Times and Time Zones

All times are in EDT time to prevent confusion due to time zone crossing. See the SWA1202 flight status page for this flight to view local times or setup timezone preferences in your user account.

Time Position Orientation Groundspeed Altitude Reporting Facility
EDT Latitude Longitude Course Direction KTS MPH feet Rate Location/Type
06:20PM 33.9439 -118.4597 233° Southwest 193 222 1,600  Level Los Angeles Center
06:21PM 33.9361 -118.5353 263° West 229 264 3,800 2,880 Climbing Los Angeles Center
06:22PM 33.9261 -118.6361 263° West 279 321 7,600 3,180 Climbing Los Angeles Center
06:23PM 33.9169 -118.7364 264° West 305 351 10,500 2,520 Climbing Los Angeles Center
06:24PM 33.9067 -118.8567 264° West 353 406 12,900 1,980 Climbing Los Angeles Center
06:25PM 33.9008 -118.9814 267° West 378 435 14,700 2,160 Climbing Los Angeles Center
06:26PM 33.9667 -119.0711 312° West 363 418 17,400 2,460 Climbing Los Angeles Center
06:27PM 34.0389 -119.1639 313° West 378 435 19,800 2,220 Climbing Los Angeles Center
06:28PM 34.1122 -119.2583 313° West 384 442 22,000 2,220 Climbing Los Angeles Center
06:30PM 34.2006 -119.3753 312° West 394 453 24,500 1,980 Climbing Los Angeles Center
06:31PM 34.2781 -119.4744 313° West 405 466 26,200 1,680 Climbing Los Angeles Center
06:32PM 34.3583 -119.5775 313° West 419 482 28,000 1,980 Climbing Los Angeles Center
06:33PM 34.4364 -119.6767 314° West 413 475 30,300 1,860 Climbing Los Angeles Center
06:34PM 34.5117 -119.7769 312° West 404 465 31,900 1,620 Climbing Los Angeles Center
06:35PM 34.6067 -119.8519 327° Northwest 402 463 33,700 1,440 Climbing Los Angeles Center
06:36PM 34.7158 -119.9414 326° Northwest 392 451 34,900 1,080 Climbing Los Angeles Center
06:37PM 34.8097 -120.0183 326° Northwest 402 463 36,000 480 Climbing Los Angeles Center
06:38PM 34.9050 -120.0983 325° Northwest 413 475 36,000  Level Los Angeles Center
06:39PM 35.0031 -120.1781 326° Northwest 424 488 36,000  Level Los Angeles Center
06:40PM 35.1003 -120.2617 325° Northwest 427 491 36,000  Level Los Angeles Center
06:41PM 35.2147 -120.3567 326° Northwest 423 487 36,000  Level Los Angeles Center
06:42PM 35.3106 -120.4375 325° Northwest 422 486 36,000  Level Los Angeles Center
06:43PM 35.4075 -120.5236 324° Northwest 433 498 36,000 -240 Level Los Angeles Center
06:44PM 35.4561 -120.5628 327° Northwest 427 491 35,700 -840 Descending Oakland Center
06:45PM 35.5531 -120.6442 326° Northwest 420 483 34,700 -1,080 Descending Oakland Center
06:46PM 35.6692 -120.7431 325° Northwest 422 486 33,500 -1,080 Descending Oakland Center
06:47PM 35.7664 -120.8233 326° Northwest 421 484 32,600 -960 Descending Oakland Center
06:48PM 35.8625 -120.9075 325° Northwest 424 488 31,600 -960 Descending Oakland Center
06:49PM 35.9597 -120.9906 325° Northwest 426 490 30,700 -960 Descending Oakland Center
06:50PM 36.0581 -121.0744 325° Northwest 428 493 29,700 -1,920 Descending Oakland Center
06:51PM 36.1564 -121.1611 325° Northwest 433 498 26,800 -3,000 Descending Oakland Center
06:52PM 36.2558 -121.2472 325° Northwest 436 502 23,600 -2,460 Descending Oakland Center
06:53PM 36.3519 -121.3297 325° Northwest 422 486 21,800 -1,860 Descending Oakland Center
06:54PM 36.4675 -121.4297 325° Northwest 421 484 19,900 -2,460 Descending Oakland Center
06:55PM 36.5622 -121.5117 325° Northwest 417 480 16,800 -2,760 Descending Oakland Center
06:56PM 36.6508 -121.5911 324° Northwest 392 451 14,300 -2,880 Descending Oakland Center
06:57PM 36.7547 -121.5961 358° North 373 429 10,900 -2,160 Descending Oakland Center
06:58PM 36.8483 -121.5833 North 368 423 9,900 -1,380 Descending Oakland Center
06:59PM 36.9461 -121.5781 North 312 359 8,100 -1,020 Descending Oakland Center
07:00PM 37.0183 -121.6239 333° Northwest 272 313 7,900 -1,260 Descending Oakland Center
07:01PM 37.0750 -121.6600 333° Northwest 254 292 5,600 -1,500 Descending Oakland Center
07:02PM 37.1425 -121.7017 334° Northwest 267 307 4,900 -780 Descending Oakland Center
07:03PM 37.1953 -121.7442 327° Northwest 246 283 4,100 -900 Descending Oakland Center
07:04PM 37.2414 -121.7983 317° Northwest 233 268 3,100 -1,080 Descending Oakland Center
07:05PM 37.2828 -121.8431 319° Northwest 218 251 2,000 -1,020 Descending Oakland Center
07:06PM 37.3183 -121.8822 319° Northwest 168 193 1,100 -840 Descending Oakland Center
07:07PM 37.3472 -121.9144 318° Northwest 149 171 300 -780 Descending Oakland Center
07:09PM 37.3500 -121.9167 North  Level FlightAware Approximate
07:16PM 37.3627 -121.9291 North  Level Estimated
07:17PM 37.3627 -121.9291 North  Level Estimated